createdAt,value
2022-09-29T00:00:35.259Z,99883.03
2022-09-29T00:03:01.856Z,99878.78
2022-09-29T00:05:30.479Z,99879.06
2022-09-29T00:07:57.026Z,99878.22
2022-09-29T00:10:23.859Z,99875.53
2022-09-29T00:12:50.406Z,99877.22
2022-09-29T00:15:17.298Z,99874.53
2022-09-29T00:18:02.706Z,99873.81
2022-09-29T00:20:32.113Z,99876.38
2022-09-29T00:22:58.764Z,99873.81
2022-09-29T00:25:25.517Z,99867.72
2022-09-29T00:27:52.019Z,99868.88
2022-09-29T00:30:18.643Z,99870.00
2022-09-29T00:32:45.186Z,99872.00
2022-09-29T00:35:12.274Z,99869.44
2022-09-29T00:37:40.065Z,99869.88
2022-09-29T00:40:07.813Z,99863.78
2022-09-29T00:42:34.264Z,99871.16
2022-09-29T00:45:22.951Z,99869.88
2022-09-29T00:47:57.017Z,99869.19
2022-09-29T00:50:33.973Z,99867.63
2022-09-29T00:53:04.061Z,99866.91
2022-09-29T00:55:36.889Z,99862.81
2022-09-29T00:58:13.104Z,99862.09
2022-09-29T01:00:40.219Z,99865.78
2022-09-29T01:03:17.298Z,99866.78
2022-09-29T01:05:50.027Z,99863.22
2022-09-29T01:08:26.834Z,99855.16
2022-09-29T01:10:53.972Z,99859.69
2022-09-29T01:13:22.224Z,99863.47
2022-09-29T01:15:48.786Z,99858.38
2022-09-29T01:18:15.466Z,99857.81
2022-09-29T01:20:52.889Z,99859.09
2022-09-29T01:24:13.068Z,99863.03
2022-09-29T01:27:10.458Z,99860.63
2022-09-29T01:29:57.985Z,99864.56
2022-09-29T01:33:00.917Z,99865.97
2022-09-29T01:35:37.378Z,99870.94
2022-09-29T01:38:22.585Z,99871.34
2022-09-29T01:41:24.598Z,99866.25
2022-09-29T01:44:35.118Z,99873.59
2022-09-29T01:47:10.550Z,99874.72
2022-09-29T01:49:40.738Z,99873.44
2022-09-29T01:52:11.945Z,99871.47
2022-09-29T01:54:48.500Z,99875.41
2022-09-29T01:57:22.560Z,99878.25
2022-09-29T01:59:55.169Z,99881.91
2022-09-29T02:02:37.809Z,99878.25
2022-09-29T02:05:11.651Z,99882.75
2022-09-29T02:07:42.530Z,99878.09
2022-09-29T02:10:33.915Z,99878.81
2022-09-29T02:13:03.006Z,99882.34
2022-09-29T02:15:39.118Z,99875.28
2022-09-29T02:18:16.644Z,99880.66
2022-09-29T02:20:43.205Z,99881.63
2022-09-29T02:23:09.746Z,99884.47
2022-09-29T02:25:39.143Z,99886.44
2022-09-29T02:28:07.406Z,99881.34
2022-09-29T02:30:35.353Z,99888.56
2022-09-29T02:33:02.374Z,99885.16
2022-09-29T02:35:55.574Z,99890.81
2022-09-29T02:38:35.833Z,99893.91
2022-09-29T02:41:15.886Z,99888.66
2022-09-29T02:44:14.671Z,99881.13
2022-09-29T02:46:56.121Z,99878.56
2022-09-29T02:49:38.092Z,99876.84
2022-09-29T02:52:26.550Z,99886.75
2022-09-29T02:55:07.924Z,99885.06
2022-09-29T02:57:37.408Z,99884.22
2022-09-29T03:00:17.818Z,99886.19
2022-09-29T03:02:44.814Z,99882.06
2022-09-29T03:05:29.648Z,99885.28
2022-09-29T03:07:56.097Z,99887.53
2022-09-29T03:10:24.866Z,99888.34
2022-09-29T03:12:53.661Z,99880.69
2022-09-29T03:15:24.606Z,99887.03
2022-09-29T03:17:54.511Z,99881.78
2022-09-29T03:20:21.533Z,99876.69
2022-09-29T03:22:48.065Z,99879.66
2022-09-29T03:25:15.887Z,99876.97
2022-09-29T03:27:42.375Z,99880.63
2022-09-29T03:30:12.300Z,99880.19
2022-09-29T03:32:38.800Z,99880.72
2022-09-29T03:35:06.031Z,99881.81
2022-09-29T03:37:32.521Z,99880.13
2022-09-29T03:39:59.135Z,99888.19
2022-09-29T03:42:26.148Z,99886.47
2022-09-29T03:44:53.145Z,99890.16
2022-09-29T03:47:19.768Z,99884.78
2022-09-29T03:49:46.247Z,99888.31
2022-09-29T03:52:12.711Z,99890.72
2022-09-29T03:54:43.466Z,99894.25
2022-09-29T03:57:10.060Z,99890.59
2022-09-29T03:59:36.599Z,99894.13
2022-09-29T04:02:03.320Z,99890.59
2022-09-29T04:04:35.055Z,99892.56
2022-09-29T04:07:01.539Z,99890.84
2022-09-29T04:09:28.000Z,99896.38
2022-09-29T04:11:54.505Z,99900.03
2022-09-29T04:14:24.069Z,99899.31
2022-09-29T04:16:50.643Z,99902.00
2022-09-29T04:19:17.277Z,99912.72
2022-09-29T04:21:43.844Z,99915.41
2022-09-29T04:24:11.157Z,99913.59
2022-09-29T04:26:37.668Z,99910.19
2022-09-29T04:29:04.143Z,99913.00
2022-09-29T04:31:30.736Z,99913.97
2022-09-29T04:33:59.078Z,99919.47
2022-09-29T04:36:25.633Z,99917.50
2022-09-29T04:38:52.125Z,99915.69
2022-09-29T04:41:18.746Z,99912.00
2022-09-29T04:43:49.742Z,99919.22
2022-09-29T04:46:16.407Z,99916.53
2022-09-29T04:48:43.181Z,99919.34
2022-09-29T04:51:10.587Z,99919.47
2022-09-29T04:53:43.071Z,99924.13
2022-09-29T04:56:09.680Z,99926.91
2022-09-29T04:58:36.546Z,99933.25
2022-09-29T05:01:13.728Z,99929.13
2022-09-29T05:03:44.485Z,99928.41
2022-09-29T05:06:11.265Z,99926.72
2022-09-29T05:08:37.729Z,99930.38
2022-09-29T05:11:06.274Z,99934.88
2022-09-29T05:13:32.782Z,99937.56
2022-09-29T05:15:59.504Z,99933.19
2022-09-29T05:18:26.047Z,99936.72
2022-09-29T05:21:15.847Z,99939.41
2022-09-29T05:23:42.581Z,99944.75
2022-09-29T05:26:10.334Z,99941.50
2022-09-29T05:28:38.224Z,99948.94
2022-09-29T05:31:07.371Z,99946.88
2022-09-29T05:33:37.893Z,99948.50
2022-09-29T05:36:07.214Z,99956.06
2022-09-29T05:38:35.279Z,99958.16
2022-09-29T05:41:06.926Z,99967.19
2022-09-29T05:43:33.669Z,99963.78
2022-09-29T05:46:02.231Z,99970.25
2022-09-29T05:48:32.217Z,99970.38
2022-09-29T05:51:00.340Z,99974.88
2022-09-29T05:53:26.921Z,99967.81
2022-09-29T05:55:54.018Z,99976.72
2022-09-29T05:58:20.598Z,99968.66
2022-09-29T06:00:47.123Z,99980.25
2022-09-29T06:03:13.678Z,99976.72
2022-09-29T06:05:41.041Z,99977.56
2022-09-29T06:08:07.813Z,99987.44
2022-09-29T06:10:34.481Z,99982.19
2022-09-29T06:13:03.272Z,99980.25
2022-09-29T06:15:29.965Z,99980.97
2022-09-29T06:18:01.056Z,99987.06
2022-09-29T06:20:27.637Z,99991.44
2022-09-29T06:22:55.239Z,99992.06
2022-09-29T06:25:22.534Z,100003.38
2022-09-29T06:27:49.172Z,99998.63
2022-09-29T06:30:15.762Z,100004.56
2022-09-29T06:32:42.369Z,100007.00
2022-09-29T06:35:31.671Z,100002.25
2022-09-29T06:37:58.678Z,100007.34
2022-09-29T06:40:27.403Z,100010.66
2022-09-29T06:42:54.609Z,100009.56
2022-09-29T06:45:22.602Z,100008.56
2022-09-29T06:47:49.190Z,100006.75
2022-09-29T06:50:21.002Z,100012.72
2022-09-29T06:53:01.784Z,100015.72
2022-09-29T06:55:31.628Z,100020.25
2022-09-29T06:58:03.509Z,100015.66
2022-09-29T07:00:31.293Z,100025.13
2022-09-29T07:02:58.328Z,100022.81
2022-09-29T07:05:24.813Z,100028.59
2022-09-29T07:07:53.208Z,100031.41
2022-09-29T07:10:21.332Z,100027.69
2022-09-29T07:12:47.813Z,100027.19
2022-09-29T07:15:15.243Z,100026.31
2022-09-29T07:17:41.746Z,100028.09
2022-09-29T07:20:09.430Z,100035.22
2022-09-29T07:22:35.950Z,100037.66
2022-09-29T07:25:04.246Z,100030.16
2022-09-29T07:27:30.784Z,100037.81
2022-09-29T07:30:03.644Z,100045.56
2022-09-29T07:32:32.687Z,100049.41
2022-09-29T07:35:00.017Z,100043.81
2022-09-29T07:37:30.420Z,100045.03
2022-09-29T07:39:57.323Z,100052.66
2022-09-29T07:42:23.898Z,100051.00
2022-09-29T07:44:57.038Z,100053.91
2022-09-29T07:47:23.670Z,100056.41
2022-09-29T07:49:50.499Z,100052.78
2022-09-29T07:52:17.041Z,100048.91
2022-09-29T07:54:44.773Z,100054.47
2022-09-29T07:57:11.583Z,100056.31
2022-09-29T07:59:40.908Z,100060.72
2022-09-29T08:02:14.072Z,100059.38
2022-09-29T08:04:43.901Z,100067.59
2022-09-29T08:07:10.827Z,100066.84
2022-09-29T08:09:41.255Z,100082.19
2022-09-29T08:12:08.709Z,100080.41
2022-09-29T08:14:43.302Z,100084.84
2022-09-29T08:17:10.527Z,100079.94
2022-09-29T08:19:37.086Z,100085.41
2022-09-29T08:22:03.592Z,100086.47
2022-09-29T08:24:31.449Z,100087.34
2022-09-29T08:27:07.120Z,100089.25
2022-09-29T08:29:45.589Z,100085.72
2022-09-29T08:32:13.077Z,100094.09
2022-09-29T08:34:40.688Z,100102.91
2022-09-29T08:37:07.169Z,100098.19
2022-09-29T08:39:35.669Z,100097.59
2022-09-29T08:42:20.956Z,100107.09
2022-09-29T08:45:08.956Z,100101.50
2022-09-29T08:47:50.930Z,100102.69
2022-09-29T08:50:29.566Z,100108.31
2022-09-29T08:53:01.053Z,100108.50
2022-09-29T08:55:43.291Z,100109.34
2022-09-29T08:58:14.328Z,100108.50
2022-09-29T09:00:48.575Z,100114.94
2022-09-29T09:04:00.070Z,100112.06
2022-09-29T09:06:29.578Z,100112.03
2022-09-29T09:09:23.421Z,100119.84
2022-09-29T09:12:04.863Z,100122.22
2022-09-29T09:14:58.625Z,100122.38
2022-09-29T09:17:55.969Z,100124.78
2022-09-29T09:20:35.156Z,100125.22
2022-09-29T09:23:27.429Z,100130.47
2022-09-29T09:26:01.168Z,100127.22
2022-09-29T09:28:34.810Z,100125.97
2022-09-29T09:31:21.590Z,100126.44
2022-09-29T09:34:05.907Z,100124.53
2022-09-29T09:36:34.590Z,100132.00
2022-09-29T09:39:16.540Z,100129.47
2022-09-29T09:41:47.946Z,100125.19
2022-09-29T09:44:34.789Z,100126.19
2022-09-29T09:47:19.295Z,100132.84
2022-09-29T09:49:52.188Z,100140.09
2022-09-29T09:52:27.462Z,100135.63
2022-09-29T09:54:59.838Z,100129.59
2022-09-29T09:57:40.078Z,100133.06
2022-09-29T10:00:15.575Z,100132.31
2022-09-29T10:02:56.680Z,100138.06
2022-09-29T10:05:38.928Z,100135.47
2022-09-29T10:08:25.686Z,100135.91
2022-09-29T10:10:58.610Z,100136.50
2022-09-29T10:13:31.257Z,100137.31
2022-09-29T10:16:28.891Z,100143.72
2022-09-29T10:18:55.573Z,100138.38
2022-09-29T10:21:29.583Z,100135.09
2022-09-29T10:24:00.826Z,100142.69
2022-09-29T10:26:34.915Z,100146.94
2022-09-29T10:29:22.464Z,100147.31
2022-09-29T10:32:36.521Z,100148.34
2022-09-29T10:35:33.246Z,100149.47
2022-09-29T10:38:02.266Z,100151.63
2022-09-29T10:40:29.393Z,100145.72
2022-09-29T10:42:57.278Z,100155.91
2022-09-29T10:45:29.963Z,100156.28
2022-09-29T10:48:00.331Z,100152.06
2022-09-29T10:50:47.807Z,100152.34
2022-09-29T10:53:51.679Z,100154.72
2022-09-29T10:56:22.383Z,100163.44
2022-09-29T10:59:00.432Z,100155.53
2022-09-29T11:01:35.085Z,100152.97
2022-09-29T11:04:13.940Z,100159.53
2022-09-29T11:06:44.150Z,100154.22
2022-09-29T11:09:14.286Z,100159.56
2022-09-29T11:11:59.419Z,100160.69
2022-09-29T11:14:41.737Z,100164.00
2022-09-29T11:17:23.923Z,100166.47
2022-09-29T11:19:52.714Z,100161.66
2022-09-29T11:22:21.952Z,100167.09
2022-09-29T11:25:22.469Z,100162.31
2022-09-29T11:28:11.669Z,100154.19
2022-09-29T11:31:09.225Z,100154.16
2022-09-29T11:33:37.987Z,100154.84
2022-09-29T11:36:23.533Z,100160.53
2022-09-29T11:38:56.192Z,100162.59
2022-09-29T11:41:50.990Z,100162.59
2022-09-29T11:44:50.076Z,100168.59
2022-09-29T11:47:53.656Z,100166.03
2022-09-29T11:50:23.518Z,100173.66
2022-09-29T11:53:08.276Z,100170.53
2022-09-29T11:56:11.575Z,100168.19
2022-09-29T11:59:10.187Z,100179.13
2022-09-29T12:02:06.264Z,100174.31
2022-09-29T12:05:02.664Z,100170.94
2022-09-29T12:07:47.262Z,100166.50
2022-09-29T12:10:33.149Z,100168.44
2022-09-29T12:13:27.411Z,100174.69
2022-09-29T12:16:03.996Z,100165.53
2022-09-29T12:18:39.520Z,100166.84
2022-09-29T12:21:12.993Z,100173.22
2022-09-29T12:23:46.692Z,100173.06
2022-09-29T12:26:23.378Z,100169.72
2022-09-29T12:29:00.063Z,100168.50
2022-09-29T12:31:31.797Z,100172.56
2022-09-29T12:34:17.436Z,100161.88
2022-09-29T12:36:54.011Z,100165.25
2022-09-29T12:39:31.506Z,100164.50
2022-09-29T12:42:11.260Z,100172.09
2022-09-29T12:45:00.691Z,100161.59
2022-09-29T12:47:48.627Z,100173.66
2022-09-29T12:50:38.857Z,100162.59
2022-09-29T12:53:18.010Z,100168.53
2022-09-29T12:55:48.008Z,100165.88
2022-09-29T12:58:24.169Z,100173.91
2022-09-29T13:01:03.307Z,100168.47
2022-09-29T13:04:04.923Z,100167.63
2022-09-29T13:07:07.450Z,100171.00
2022-09-29T13:09:42.149Z,100164.88
2022-09-29T13:12:39.422Z,100166.13
2022-09-29T13:15:34.114Z,100167.41
2022-09-29T13:18:26.354Z,100172.94
2022-09-29T13:21:04.948Z,100171.22
2022-09-29T13:24:00.665Z,100167.06
2022-09-29T13:27:02.692Z,100169.59
2022-09-29T13:29:31.539Z,100169.47
2022-09-29T13:31:59.109Z,100176.44
2022-09-29T13:34:35.031Z,100176.88
2022-09-29T13:37:21.853Z,100176.69
2022-09-29T13:40:03.703Z,100182.59
2022-09-29T13:42:40.693Z,100183.81
2022-09-29T13:45:26.825Z,100182.47
2022-09-29T13:48:00.017Z,100187.28
2022-09-29T13:50:44.640Z,100186.22
2022-09-29T13:53:25.503Z,100188.69
2022-09-29T13:56:08.758Z,100184.28
2022-09-29T13:58:41.717Z,100185.31
2022-09-29T14:01:10.680Z,100191.81
2022-09-29T14:03:44.299Z,100186.47
2022-09-29T14:06:39.779Z,100193.56
2022-09-29T14:09:33.380Z,100196.19
2022-09-29T14:12:16.796Z,100191.78
2022-09-29T14:14:58.868Z,100196.59
2022-09-29T14:17:37.247Z,100201.41
2022-09-29T14:20:19.976Z,100202.63
2022-09-29T14:22:46.429Z,100208.09
2022-09-29T14:25:15.019Z,100216.31
2022-09-29T14:27:58.623Z,100207.03
2022-09-29T14:30:43.816Z,100212.66
2022-09-29T14:33:10.285Z,100208.38
2022-09-29T14:35:39.827Z,100220.75
2022-09-29T14:38:26.462Z,100218.19
2022-09-29T14:41:07.936Z,100211.03
2022-09-29T14:43:43.120Z,100217.75
2022-09-29T14:46:40.422Z,100217.75
2022-09-29T14:49:47.421Z,100220.03
2022-09-29T14:52:32.342Z,100227.53
2022-09-29T14:55:22.516Z,100225.19
2022-09-29T14:57:54.796Z,100227.72
2022-09-29T15:00:27.385Z,100227.94
2022-09-29T15:03:00.226Z,100228.97
2022-09-29T15:05:44.719Z,100228.97
2022-09-29T15:08:28.296Z,100230.00
2022-09-29T15:10:56.158Z,100231.25
2022-09-29T15:13:30.198Z,100234.56
2022-09-29T15:16:06.502Z,100242.50
2022-09-29T15:18:40.211Z,100243.25
2022-09-29T15:21:15.282Z,100246.97
2022-09-29T15:24:14.595Z,100244.34
2022-09-29T15:26:42.989Z,100256.06
2022-09-29T15:29:17.291Z,100252.59
2022-09-29T15:31:47.903Z,100248.44
2022-09-29T15:34:20.071Z,100255.25
2022-09-29T15:36:55.398Z,100259.31
2022-09-29T15:39:30.936Z,100265.22
2022-09-29T15:42:23.670Z,100261.94
2022-09-29T15:45:00.148Z,100277.94
2022-09-29T15:47:39.388Z,100267.66
2022-09-29T15:50:21.047Z,100272.03
2022-09-29T15:52:48.403Z,100274.56
2022-09-29T15:55:18.183Z,100275.34
2022-09-29T15:57:47.963Z,100273.91
2022-09-29T16:00:23.646Z,100278.09
2022-09-29T16:03:04.236Z,100279.56
2022-09-29T16:05:34.205Z,100283.38
2022-09-29T16:08:04.263Z,100291.41
2022-09-29T16:10:40.758Z,100295.84
2022-09-29T16:13:15.565Z,100293.00
2022-09-29T16:15:46.188Z,100292.03
2022-09-29T16:18:19.994Z,100302.75
2022-09-29T16:20:46.944Z,100305.34
2022-09-29T16:23:25.312Z,100311.66
2022-09-29T16:26:14.245Z,100317.81
2022-09-29T16:29:01.044Z,100322.94
2022-09-29T16:31:30.056Z,100324.31
2022-09-29T16:34:01.012Z,100328.59
2022-09-29T16:36:35.987Z,100329.28
2022-09-29T16:39:05.252Z,100319.09
2022-09-29T16:41:41.068Z,100326.78
2022-09-29T16:44:24.489Z,100329.16
2022-09-29T16:46:55.931Z,100333.44
2022-09-29T16:49:31.753Z,100342.38
2022-09-29T16:52:15.786Z,100343.78
2022-09-29T16:54:44.704Z,100345.16
2022-09-29T16:57:27.551Z,100344.97
2022-09-29T17:00:11.714Z,100349.75
2022-09-29T17:02:38.261Z,100358.75
2022-09-29T17:05:05.159Z,100348.56
2022-09-29T17:07:32.156Z,100360.09
2022-09-29T17:10:00.902Z,100356.00
2022-09-29T17:12:29.584Z,100362.13
2022-09-29T17:15:01.537Z,100353.75
2022-09-29T17:17:28.573Z,100368.88
2022-09-29T17:19:56.694Z,100361.69
2022-09-29T17:22:41.356Z,100368.09
2022-09-29T17:25:13.475Z,100361.63
2022-09-29T17:27:58.874Z,100365.19
2022-09-29T17:30:26.137Z,100370.41
2022-09-29T17:32:54.769Z,100369.38
2022-09-29T17:35:27.866Z,100372.06
2022-09-29T17:37:56.170Z,100378.47
2022-09-29T17:40:28.454Z,100381.94
2022-09-29T17:42:58.969Z,100377.97
2022-09-29T17:45:25.964Z,100389.94
2022-09-29T17:47:53.302Z,100393.31
2022-09-29T17:50:22.517Z,100389.38
2022-09-29T17:52:49.071Z,100394.38
2022-09-29T17:55:15.775Z,100394.00
2022-09-29T17:57:43.429Z,100397.03
2022-09-29T18:00:19.326Z,100395.66
2022-09-29T18:02:46.076Z,100401.38
2022-09-29T18:05:13.991Z,100403.72
2022-09-29T18:07:41.638Z,100409.03
2022-09-29T18:10:28.774Z,100400.00
2022-09-29T18:12:56.297Z,100407.19
2022-09-29T18:15:27.521Z,100410.53
2022-09-29T18:17:59.178Z,100412.84
2022-09-29T18:20:29.691Z,100419.75
2022-09-29T18:22:59.238Z,100424.22
2022-09-29T18:25:33.634Z,100422.13
2022-09-29T18:28:01.805Z,100419.03
2022-09-29T18:30:40.287Z,100419.34
2022-09-29T18:33:14.909Z,100418.09
2022-09-29T18:35:44.536Z,100418.41
2022-09-29T18:38:11.675Z,100419.69
2022-09-29T18:40:39.179Z,100416.56
2022-09-29T18:43:07.310Z,100419.84
2022-09-29T18:45:37.437Z,100426.88
2022-09-29T18:48:06.383Z,100439.16
2022-09-29T18:50:39.244Z,100438.75
2022-09-29T18:53:06.231Z,100438.34
2022-09-29T18:55:32.787Z,100442.63
2022-09-29T18:58:00.133Z,100441.09
2022-09-29T19:00:32.818Z,100440.69
2022-09-29T19:03:01.097Z,100451.09
2022-09-29T19:05:30.967Z,100453.38
2022-09-29T19:08:00.635Z,100463.63
2022-09-29T19:10:32.516Z,100470.19
2022-09-29T19:13:08.361Z,100465.06
2022-09-29T19:15:40.617Z,100474.47
2022-09-29T19:18:08.281Z,100473.06
2022-09-29T19:20:35.591Z,100480.44
2022-09-29T19:23:03.077Z,100485.13
2022-09-29T19:25:39.243Z,100483.88
2022-09-29T19:28:06.160Z,100489.84
2022-09-29T19:30:37.171Z,100496.53
2022-09-29T19:33:05.033Z,100498.53
2022-09-29T19:35:31.824Z,100504.78
2022-09-29T19:37:59.379Z,100516.88
2022-09-29T19:40:29.713Z,100512.19
2022-09-29T19:42:58.445Z,100514.75
2022-09-29T19:45:26.566Z,100514.75
2022-09-29T19:47:57.064Z,100514.59
2022-09-29T19:50:43.056Z,100523.56
2022-09-29T19:55:42.103Z,100528.53
2022-09-29T19:58:08.697Z,100535.81
2022-09-29T20:00:35.687Z,100540.34
2022-09-29T20:03:02.476Z,100536.66
2022-09-29T20:05:29.467Z,100543.91
2022-09-29T20:07:56.054Z,100547.47
2022-09-29T20:10:24.205Z,100543.91
2022-09-29T20:12:50.741Z,100557.56
2022-09-29T20:15:17.404Z,100553.44
2022-09-29T20:17:44.626Z,100557.72
2022-09-29T20:20:11.881Z,100559.28
2022-09-29T20:22:38.926Z,100567.81
2022-09-29T20:25:07.830Z,100565.38
2022-09-29T20:27:35.719Z,100574.59
2022-09-29T20:30:05.231Z,100573.03
2022-09-29T20:32:33.540Z,100573.31
2022-09-29T20:35:01.761Z,100578.00
2022-09-29T20:37:29.089Z,100581.69
2022-09-29T20:39:56.124Z,100582.69
2022-09-29T20:42:22.745Z,100580.97
2022-09-29T20:44:55.096Z,100579.13
2022-09-29T20:47:25.369Z,100586.38
2022-09-29T20:49:54.821Z,100591.19
2022-09-29T20:52:21.573Z,100590.63
2022-09-29T20:54:48.205Z,100595.44
2022-09-29T20:57:18.363Z,100594.16
2022-09-29T20:59:45.098Z,100593.97
2022-09-29T21:02:13.604Z,100601.75
2022-09-29T21:04:42.334Z,100608.41
2022-09-29T21:07:28.842Z,100604.28
2022-09-29T21:09:55.419Z,100608.97
2022-09-29T21:12:21.873Z,100613.78
2022-09-29T21:14:48.583Z,100610.63
2022-09-29T21:17:15.071Z,100610.31
2022-09-29T21:19:41.630Z,100614.41
2022-09-29T21:22:08.965Z,100616.38
2022-09-29T21:24:41.381Z,100615.66
2022-09-29T21:27:09.213Z,100615.94
2022-09-29T21:29:35.844Z,100621.75
2022-09-29T21:32:02.386Z,100633.66
2022-09-29T21:34:33.433Z,100630.22
2022-09-29T21:36:59.921Z,100631.22
2022-09-29T21:39:26.451Z,100637.75
2022-09-29T21:41:53.000Z,100637.28
2022-09-29T21:44:23.951Z,100630.53
2022-09-29T21:46:51.328Z,100633.75
2022-09-29T21:49:19.287Z,100637.72
2022-09-29T21:51:48.343Z,100638.09
2022-09-29T21:54:25.479Z,100642.06
2022-09-29T21:56:53.073Z,100646.81
2022-09-29T21:59:20.879Z,100640.97
2022-09-29T22:01:47.583Z,100642.06
2022-09-29T22:04:17.067Z,100651.28
2022-09-29T22:06:44.968Z,100644.19
2022-09-29T22:09:16.915Z,100643.31
2022-09-29T22:11:44.162Z,100638.06
2022-09-29T22:14:13.962Z,100648.00
2022-09-29T22:16:40.707Z,100645.69
2022-09-29T22:19:24.692Z,100649.63
2022-09-29T22:21:53.220Z,100643.75
2022-09-29T22:24:23.744Z,100639.75
2022-09-29T22:26:50.309Z,100640.13
2022-09-29T22:29:17.032Z,100643.94
2022-09-29T22:31:43.670Z,100652.13
2022-09-29T22:34:11.164Z,100646.88
2022-09-29T22:36:37.739Z,100643.34
2022-09-29T22:39:06.364Z,100653.25
2022-09-29T22:41:33.351Z,100648.84
2022-09-29T22:44:04.608Z,100652.53
2022-09-29T22:46:32.267Z,100653.50
2022-09-29T22:48:59.751Z,100660.00
2022-09-29T22:51:26.684Z,100664.66
2022-09-29T22:53:56.370Z,100663.19
2022-09-29T22:56:30.274Z,100669.66
2022-09-29T22:59:02.987Z,100671.75
2022-09-29T23:01:30.082Z,100675.56
2022-09-29T23:03:58.426Z,100678.38
2022-09-29T23:06:25.129Z,100674.84
2022-09-29T23:08:53.504Z,100671.41
2022-09-29T23:11:20.188Z,100670.06
2022-09-29T23:13:48.952Z,100663.22
2022-09-29T23:16:16.739Z,100660.78
2022-09-29T23:18:45.730Z,100668.25
2022-09-29T23:21:14.796Z,100663.25
2022-09-29T23:23:43.298Z,100668.13
2022-09-29T23:26:09.786Z,100671.09
2022-09-29T23:28:36.291Z,100671.31
2022-09-29T23:31:07.626Z,100673.41
2022-09-29T23:33:34.252Z,100670.97
2022-09-29T23:36:09.405Z,100673.03
2022-09-29T23:38:56.054Z,100675.13
2022-09-29T23:41:24.166Z,100677.09
2022-09-29T23:43:56.146Z,100679.66
2022-09-29T23:46:31.566Z,100675.25
2022-09-29T23:49:02.746Z,100677.22
2022-09-29T23:51:33.250Z,100683.69
2022-09-29T23:54:00.815Z,100671.34
2022-09-29T23:56:27.965Z,100679.53
2022-09-29T23:58:55.498Z,100674.25
